Latest Weather Observations for Ernabella/Pukatja

IDS60801

Issued at 2:35 am CDT Saturday 1 November 2014 (issued every 30 minutes, with the page automatically refreshed every 10 minutes)

About weather observations | Map of weather stations | Latest weather observations for SA | Other Formats
Station Details ID: 016097 Name: PUKATJA Lat: -26.26 Lon: 132.18 Height: 703.2 m
Data from the previous 72 hours. | See also: Recent months at Ernabella/Pukatja
Date/Time
CDT
Temp
°C
App
Temp
°C
Dew
Point
Rel
Hum
%
Delta-T
°C
Wind Press
QNH
hPa
Press
MSL
hPa
Rain
since 9 am
mm
Dir
 
Spd
km/h
Gust
km/h
Spd
kts
Gust
kts
01/02:30am 21.0 17.2 13.7 63 4.3 SSW 26 35 14 19 1013.6 - 6.4
01/02:00am 18.9 18.8 16.1 84 1.7 WSW 11 15 6 8 1013.6 - 6.4
01/01:30am 18.9 19.5 15.9 83 1.8 SSW 7 11 4 6 1014.1 - 6.4
01/01:00am 18.9 18.7 15.6 81 2.0 SSW 11 19 6 10 1014.2 - 6.4
01/12:30am 18.1 19.1 16.3 89 1.1 N 6 7 3 4 1014.6 - 6.4
01/12:00am 18.7 18.5 15.6 82 1.9 SW 11 15 6 8 1014.7 1010.6 6.4
 
Date/Time
CDT
Temp
°C
App
Temp
°C
Dew
Point
Rel
Hum
%
Delta-T
°C
Wind Press
QNH
hPa
Press
MSL
hPa
Rain
since 9 am
mm
Dir
 
Spd
km/h
Gust
km/h
Spd
kts
Gust
kts
31/11:30pm 19.2 17.3 15.1 77 2.5 WSW 19 26 10 14 1014.6 - 6.4
31/11:22pm 19.2 17.3 15.1 77 2.5 SW 19 28 10 15 1014.3 - 6.4
31/11:09pm 17.8 14.2 15.2 85 1.6 NE 28 46 15 25 1012.2 - 6.4
31/11:02pm 17.5 12.1 15.0 85 1.5 NE 37 44 20 24 1011.7 - 6.4
31/11:00pm 18.0 15.3 14.7 81 2.0 N 22 43 12 23 1013.5 - 6.2
31/10:52pm 18.6 13.7 14.3 76 2.6 NW 33 50 18 27 1015.9 - 5.2
31/10:41pm 19.5 13.0 13.9 70 3.3 W 41 59 22 32 1015.3 - 3.8
31/10:37pm 19.7 12.6 14.1 70 3.3 W 44 59 24 32 1015.5 - 3.2
31/10:30pm 18.7 14.3 15.6 82 1.9 SW 33 48 18 26 1015.7 - 2.8
31/10:00pm 19.1 11.5 15.8 81 2.0 WSW 50 70 27 38 1015.2 - 1.8
31/09:51pm 18.8 9.7 16.2 85 1.6 WSW 59 93 32 50 1014.7 - 1.2
31/09:38pm 23.6 12.1 12.6 50 6.5 SW 65 83 35 45 1012.7 - 0.0
31/09:36pm 28.4 23.2 10.1 32 10.6 WSW 28 72 15 39 1012.3 - 0.0
31/09:30pm 28.5 26.0 8.2 28 11.4 NNW 11 15 6 8 1010.4 - 0.0
31/09:00pm 28.1 26.2 7.4 27 11.5 N 7 13 4 7 1009.5 1006.0 0.0
31/08:30pm 29.7 26.3 7.6 25 12.4 NW 15 20 8 11 1009.5 - 0.0
31/08:00pm 30.2 25.4 7.4 24 12.8 NW 22 30 12 16 1009.2 - 0.0
31/07:30pm 30.6 26.0 5.8 21 13.5 NNW 19 26 10 14 1008.6 - 0.0
31/07:00pm 31.2 24.7 4.9 19 14.2 NW 28 39 15 21 1008.8 - 0.0
31/06:42pm 32.2 25.6 4.1 17 15.1 NW 28 46 15 25 1008.7 - 0.0
31/06:30pm 32.3 24.9 4.2 17 15.1 NW 32 44 17 24 1008.5 - 0.0
31/06:00pm 32.5 25.9 4.3 17 15.2 NNW 28 39 15 21 1008.0 1004.5 0.0
31/05:30pm 29.3 22.3 6.7 24 12.4 NW 33 52 18 28 1009.2 - 0.0
31/05:02pm 30.7 23.7 8.4 25 12.7 WNW 35 54 19 29 1009.8 - 0.0
31/05:00pm 30.9 23.3 7.4 23 13.2 WNW 37 54 20 29 1009.8 - 0.0
31/04:30pm 32.0 24.7 8.9 24 13.3 WNW 37 57 20 31 1010.0 - 0.0
31/04:28pm 31.6 23.9 8.6 24 13.2 WNW 39 57 21 31 1010.0 - 0.0
31/04:00pm 31.2 24.3 8.8 25 12.9 NW 35 48 19 26 1010.3 - 0.0
31/03:30pm 32.1 26.3 9.6 25 13.1 WNW 30 46 16 25 1010.9 - 0.0
31/03:05pm 32.4 26.0 9.2 24 13.5 NW 33 52 18 28 1011.0 - 0.0
31/03:00pm 32.0 25.6 9.5 25 13.1 NW 33 46 18 25 1011.0 1007.6 0.0
31/02:39pm 31.6 24.6 9.8 26 12.8 WNW 37 56 20 30 1011.0 - 0.0
31/02:30pm 32.5 25.5 9.9 25 13.3 NW 37 54 20 29 1011.0 - 0.0
31/02:11pm 31.3 23.3 10.6 28 12.2 NW 43 61 23 33 1010.9 - 0.0
31/02:00pm 31.4 23.5 10.7 28 12.3 NW 43 57 23 31 1011.0 - 0.0
31/01:30pm 31.3 23.3 10.6 28 12.2 NW 43 69 23 37 1011.2 - 0.0
31/01:00pm 30.6 24.4 10.0 28 12.0 NW 33 57 18 31 1011.9 - 0.0
31/12:56pm 30.8 25.4 9.6 27 12.3 NNW 28 57 15 31 1012.0 - 0.0
31/12:30pm 30.5 27.3 9.9 28 12.0 N 17 24 9 13 1012.3 - 0.0
31/12:00pm 29.9 24.4 10.5 30 11.4 N 30 39 16 21 1012.8 1009.4 0.0
31/11:30am 28.1 23.1 10.8 34 10.1 NNW 28 44 15 24 1013.2 - 0.0
31/11:00am 27.3 22.0 11.3 37 9.4 NNW 30 46 16 25 1013.0 - 0.0
31/10:30am 27.1 22.7 10.3 35 9.7 N 24 37 13 20 1012.9 - 0.0
31/10:00am 26.4 21.3 10.5 37 9.2 N 28 39 15 21 1013.0 - 0.0
31/09:30am 25.9 22.0 10.9 39 8.7 NNW 22 39 12 21 1013.5 - 0.0
31/09:00am 23.3 20.9 11.4 47 6.9 N 15 26 8 14 1013.3 1009.9 0.2
31/08:30am 21.5 18.5 11.8 54 5.6 N 19 26 10 14 1013.6 - 0.2
31/08:00am 20.9 19.5 12.1 57 5.1 NW 11 15 6 8 1014.8 - 0.2
31/07:30am 21.9 18.3 10.7 49 6.4 N 20 28 11 15 1014.8 - 0.2
31/07:00am 21.8 20.2 10.3 48 6.5 N 9 19 5 10 1014.1 - 0.2
31/06:30am 20.9 19.1 10.7 52 5.8 NNE 11 15 6 8 1012.2 - 0.2
31/06:00am 21.0 20.6 11.1 53 5.6 N 4 11 2 6 1012.3 1009.0 0.2
31/05:30am 21.2 20.2 11.0 52 5.8 ENE 7 13 4 7 1011.9 - 0.2
31/05:00am 21.5 17.6 10.9 51 6.0 E 22 43 12 23 1010.7 - 0.2
31/04:56am 21.5 18.3 11.2 52 5.9 NE 19 50 10 27 1010.3 - 0.2
31/04:42am 21.4 14.1 11.4 53 5.7 N 41 59 22 32 1009.5 - 0.2
31/04:37am 21.3 15.7 11.6 54 5.6 N 32 41 17 22 1012.0 - 0.2
31/04:30am 20.7 19.3 12.1 58 5.0 NNE 11 19 6 10 1012.9 - 0.2
31/04:00am 19.9 19.3 13.4 66 3.8 N 9 11 5 6 1013.4 - 0.2
31/03:30am 19.2 18.1 14.2 73 3.0 ENE 13 19 7 10 1012.7 - 0.2
31/03:00am 20.1 20.0 13.3 65 4.0 W 6 13 3 7 1013.8 1010.5 0.2
31/02:30am 20.7 16.8 13.2 62 4.4 SSE 26 33 14 18 1014.7 - 0.2
31/02:00am 19.4 16.9 14.2 72 3.1 SW 20 28 11 15 1016.4 - 0.2
31/01:30am 20.2 15.4 13.9 67 3.8 SSW 32 43 17 23 1017.2 - 0.2
31/01:00am 20.4 16.2 14.7 70 3.4 S 30 43 16 23 1016.5 - 0.2
31/12:48am 20.8 15.4 14.9 69 3.6 S 37 56 20 30 1016.3 - 0.2
31/12:30am 20.9 16.2 14.3 66 4.0 S 32 46 17 25 1016.2 - 0.2
31/12:17am 23.9 17.9 10.2 42 7.8 S 32 50 17 27 1016.3 - 0.0
31/12:12am 24.6 17.4 9.3 38 8.6 S 37 50 20 27 1016.3 - 0.0
31/12:11am 24.5 18.3 9.3 38 8.5 SW 32 50 17 27 1016.2 - 0.0
31/12:00am 26.0 19.6 7.1 30 10.3 SW 30 43 16 23 1016.2 1012.9 0.0
 
Date/Time
CDT
Temp
°C
App
Temp
°C
Dew
Point
Rel
Hum
%
Delta-T
°C
Wind Press
QNH
hPa
Press
MSL
hPa
Rain
since 9 am
mm
Dir
 
Spd
km/h
Gust
km/h
Spd
kts
Gust
kts
30/11:57pm 26.1 20.0 6.7 29 10.5 SW 28 43 15 23 1016.1 - 0.0
30/11:30pm 24.8 22.6 6.1 30 9.9 NNE 7 11 4 6 1014.2 - 0.0
30/11:00pm 25.3 23.1 5.5 28 10.4 NNE 6 7 3 4 1014.4 - 0.0
30/10:30pm 26.2 23.1 5.7 27 10.9 N 11 20 6 11 1014.1 - 0.0
30/10:00pm 25.9 22.7 4.9 26 11.0 N 11 13 6 7 1013.6 - 0.0
30/09:30pm 27.1 23.5 4.8 24 11.7 N 13 17 7 9 1013.7 - 0.0
30/09:00pm 27.6 23.9 4.6 23 12.1 N 13 19 7 10 1013.6 1010.3 0.0
30/08:30pm 28.1 24.8 4.4 22 12.5 N 11 19 6 10 1013.4 - 0.0
30/08:00pm 28.7 25.5 4.9 22 12.7 N 11 17 6 9 1013.0 - 0.0
30/07:30pm 30.0 25.9 4.6 20 13.6 NNW 15 24 8 13 1012.9 - 0.0
30/07:00pm 31.0 26.1 3.9 18 14.4 N 19 26 10 14 1012.9 - 0.0
30/06:30pm 30.6 25.6 4.4 19 14.0 N 20 30 11 16 1013.1 - 0.0
30/06:00pm 30.8 25.3 3.8 18 14.3 N 22 35 12 19 1013.1 1009.7 0.0
30/05:30pm 31.3 26.4 4.2 18 14.5 N 19 32 10 17 1013.0 - 0.0
30/05:00pm 32.4 28.0 5.0 18 14.9 N 17 26 9 14 1013.3 - 0.0
30/04:30pm 31.1 27.4 6.2 21 13.7 N 15 32 8 17 1013.8 - 0.0
30/04:00pm 31.1 27.5 6.9 22 13.5 NE 15 22 8 12 1014.2 - 0.0
30/03:30pm 31.3 28.7 7.7 23 13.3 NE 11 20 6 11 1014.7 - 0.0
30/03:00pm 30.3 27.8 8.1 25 12.6 ENE 11 17 6 9 1015.3 1012.0 0.0
30/02:30pm 27.9 25.1 8.7 30 10.9 NNE 13 20 7 11 1015.7 - 0.0
30/02:00pm 26.3 22.9 9.2 34 9.7 SW 17 26 9 14 1017.3 - 0.0
30/01:30pm 27.6 23.5 8.5 30 10.7 SW 20 26 11 14 1017.6 - 0.0
30/01:00pm 27.9 25.2 7.2 27 11.4 WSW 11 19 6 10 1018.0 - 0.0
30/12:30pm 27.8 25.4 7.1 27 11.4 WSW 9 13 5 7 1018.2 - 0.0
30/12:00pm 27.9 25.5 7.2 27 11.4 W 9 15 5 8 1018.5 1015.2 0.0
30/11:30am 26.2 24.4 7.3 30 10.3 WNW 6 9 3 5 1018.6 - 0.0
30/11:00am 25.8 23.1 7.4 31 10.1 W 11 15 6 8 1018.8 - 0.0
30/10:30am 25.9 24.0 7.5 31 10.1 W 7 9 4 5 1018.0 - 0.0
30/10:00am 25.4 23.6 8.0 33 9.6 WSW 7 11 4 6 1017.9 - 0.0
30/09:30am 24.7 22.8 9.0 37 8.8 SW 9 11 5 6 1018.0 - 0.0
30/09:00am 23.7 22.0 11.1 45 7.3 SW 11 13 6 7 1017.9 1014.6 0.0
30/08:30am 24.5 20.0 6.3 31 9.7 SW 19 24 10 13 1018.3 - 0.0
30/08:00am 25.7 20.9 0.4 19 12.2 WSW 15 19 8 10 1018.2 - 0.0
30/07:30am 23.1 19.6 1.4 24 10.5 WNW 9 11 5 6 1017.6 - 0.0
30/07:00am 22.3 19.8 1.3 25 10.1 W 4 11 2 6 1016.8 - 0.0
30/06:30am 22.5 20.7 1.5 25 10.1 CALM 0 6 0 3 1015.9 - 0.0
30/06:00am 23.0 19.9 1.4 24 10.4 ESE 7 9 4 5 1015.7 1012.3 0.0
30/05:30am 22.5 19.6 1.5 25 10.1 WNW 6 7 3 4 1016.4 - 0.0
30/05:00am 21.8 18.7 1.5 26 9.7 WNW 7 11 4 6 1016.6 - 0.0
30/04:30am 23.5 21.4 1.8 24 10.6 WNW 2 9 1 5 1016.5 - 0.0
30/04:00am 24.4 22.0 1.9 23 11.1 SW 4 6 2 3 1016.2 - 0.0
30/03:30am 25.6 22.2 1.7 21 11.8 S 9 11 5 6 1016.2 - 0.0
30/03:00am 27.3 22.7 1.7 19 12.8 SSE 15 20 8 11 1016.4 1013.1 0.0
30/02:30am 27.4 22.5 1.8 19 12.8 SSE 17 22 9 12 1016.3 - 0.0
30/02:00am 28.2 20.8 1.7 18 13.3 S 30 43 16 23 1016.3 - 0.0
30/01:31am 28.7 20.8 1.3 17 13.7 SSE 32 50 17 27 1016.4 - 0.0
30/01:30am 28.8 20.7 1.3 17 13.8 SSE 33 50 18 27 1016.4 - 0.0
30/01:20am 28.8 21.6 0.5 16 14.0 SSE 28 46 15 25 1016.6 - 0.0
30/01:00am 29.0 22.3 1.5 17 13.8 S 26 37 14 20 1016.8 - 0.0
30/12:30am 29.6 23.6 1.1 16 14.3 SSW 22 33 12 18 1017.4 - 0.0
30/12:00am 29.8 23.2 2.1 17 14.1 SSW 26 37 14 20 1017.8 1014.5 0.0
 
Date/Time
CDT
Temp
°C
App
Temp
°C
Dew
Point
Rel
Hum
%
Delta-T
°C
Wind Press
QNH
hPa
Press
MSL
hPa
Rain
since 9 am
mm
Dir
 
Spd
km/h
Gust
km/h
Spd
kts
Gust
kts
29/11:30pm 29.8 23.6 2.1 17 14.2 S 24 32 13 17 1017.8 - 0.0
29/11:00pm 30.2 24.0 -0.2 14 15.0 SW 22 28 12 15 1017.7 - 0.0
29/10:30pm 30.5 23.8 -1.0 13 15.3 SW 24 33 13 18 1017.6 - 0.0
29/10:00pm 31.0 23.3 -2.9 11 16.0 SW 28 37 15 20 1017.4 - 0.0
29/09:30pm 31.4 24.5 -2.6 11 16.2 WSW 24 30 13 16 1017.1 - 0.0
29/09:00pm 31.6 24.4 -2.4 11 16.3 WSW 26 33 14 18 1016.6 1013.3 0.0
29/08:30pm 31.3 26.9 -2.6 11 16.2 WSW 11 13 6 7 1016.2 - 0.0
29/08:00pm 32.0 27.3 -2.1 11 16.5 WSW 13 17 7 9 1015.9 - 0.0
29/07:30pm 32.3 28.0 -1.9 11 16.6 W 11 17 6 9 1015.8 - 0.0
29/07:00pm 32.8 27.4 -1.5 11 16.8 W 17 24 9 13 1015.6 - 0.0
29/06:30pm 33.2 29.0 -1.2 11 17.0 WNW 11 20 6 11 1015.3 - 0.0
29/06:00pm 33.8 28.1 -3.5 9 17.8 WSW 17 28 9 15 1015.0 1011.7 0.0
29/05:30pm 33.7 27.8 -2.1 10 17.5 WSW 19 35 10 19 1014.9 - 0.0
29/05:00pm 34.1 28.1 -1.8 10 17.7 NW 20 43 11 23 1015.0 - 0.0
29/04:30pm 33.5 28.7 -2.3 10 17.4 WNW 13 28 7 15 1015.3 - 0.0
29/04:00pm 34.0 29.8 -0.6 11 17.4 NW 11 22 6 12 1015.7 - 0.0
29/03:30pm 33.8 28.9 -0.7 11 17.3 WNW 15 26 8 14 1016.2 - 0.0
29/03:00pm 33.8 29.5 -2.0 10 17.5 N 11 24 6 13 1016.6 1013.3 0.0
29/02:30pm 34.1 29.4 -1.8 10 17.7 N 13 22 7 12 1017.1 - 0.0
29/02:00pm 32.9 28.5 -2.7 10 17.1 NNW 11 28 6 15 1017.5 - 0.0
29/01:30pm 33.1 28.5 -4.0 9 17.5 NNE 11 30 6 16 1017.8 - 0.0
29/01:00pm 31.5 25.6 -5.2 9 16.8 N 17 28 9 15 1018.2 - 0.0
29/12:30pm 30.8 24.7 -4.3 10 16.2 NE 19 32 10 17 1018.7 - 0.0
29/12:00pm 30.6 24.4 -4.5 10 16.1 NNE 19 28 10 15 1019.2 1015.9 0.0
29/11:30am 29.6 23.2 -5.2 10 15.7 NNE 20 30 11 16 1019.5 - 0.0
29/11:00am 29.1 22.6 -5.6 10 15.4 NE 20 30 11 16 1019.7 - 0.0
29/10:30am 28.4 21.9 -6.1 10 15.1 NE 20 32 11 17 1019.8 - 0.0
29/10:00am 27.7 20.8 -6.6 10 14.8 NE 22 30 12 16 1019.9 - 0.0
29/09:30am 26.1 19.8 -5.5 12 13.7 NNE 19 28 10 15 1019.9 - 0.0
29/09:00am 24.7 18.2 -5.5 13 12.9 NE 20 30 11 16 1019.9 1016.7 0.0
29/08:30am 23.7 18.2 -5.3 14 12.4 NE 15 20 8 11 1020.2 - 0.0
29/08:00am 21.5 16.9 -4.5 17 11.1 E 11 15 6 8 1020.3 - 0.0
29/07:30am 19.6 15.0 -3.9 20 9.9 E 11 15 6 8 1020.1 - 0.0
29/07:00am 17.7 13.1 -3.7 23 8.9 E 11 11 6 6 1019.8 - 0.0
29/06:30am 18.6 13.7 -3.5 22 9.3 E 13 15 7 8 1019.5 - 0.0
29/06:00am 18.5 14.0 -3.6 22 9.3 E 11 13 6 7 1019.3 1016.0 0.0
29/05:30am 19.1 14.2 -3.7 21 9.6 E 13 17 7 9 1019.0 - 0.0
29/05:00am 19.1 14.2 -3.1 22 9.5 E 13 15 7 8 1018.9 - 0.0
29/04:30am 19.4 14.6 -2.8 22 9.6 E 13 15 7 8 1018.7 - 0.0
29/04:00am 19.7 14.9 -2.6 22 9.7 E 13 15 7 8 1018.8 - 0.0
29/03:30am 19.0 14.2 -2.6 23 9.3 E 13 15 7 8 1018.8 - 0.0
29/03:00am 19.4 15.0 -2.2 23 9.4 E 11 15 6 8 1019.0 1015.7 0.0

Other Formats:

Comma delimited format used in spreadsheet applications
http://www.bom.gov.au/fwo/IDS60801/IDS60801.94474.axf

JavaScript Object Notation format (JSON) in row-major order
http://www.bom.gov.au/fwo/IDS60801/IDS60801.94474.json